createdAt,value
2022-12-08T00:03:46.995Z,1.64
2022-12-08T00:09:07.643Z,1.54
2022-12-08T00:14:09.141Z,1.43
2022-12-08T00:19:10.763Z,1.47
2022-12-08T00:24:12.539Z,1.36
2022-12-08T00:29:17.379Z,1.34
2022-12-08T00:34:19.977Z,1.32
2022-12-08T00:39:21.567Z,1.33
2022-12-08T00:44:23.312Z,1.40
2022-12-08T00:49:24.991Z,1.44
2022-12-08T00:54:26.659Z,1.50
2022-12-08T00:59:28.405Z,1.57
2022-12-08T01:04:30.320Z,1.69
2022-12-08T01:09:32.680Z,1.68
2022-12-08T01:14:34.305Z,1.78
2022-12-08T01:19:37.059Z,1.81
2022-12-08T01:24:38.796Z,1.94
2022-12-08T01:29:40.458Z,2.02
2022-12-08T01:34:42.194Z,2.06
2022-12-08T01:39:44.180Z,2.13
2022-12-08T01:44:45.853Z,2.21
2022-12-08T01:49:48.020Z,2.25
2022-12-08T01:54:54.138Z,2.35
2022-12-08T02:00:07.705Z,2.38
2022-12-08T02:05:11.598Z,2.40
2022-12-08T02:10:18.207Z,2.43
2022-12-08T02:15:23.611Z,2.41
2022-12-08T02:21:09.071Z,2.41
2022-12-08T02:26:20.118Z,2.43
2022-12-08T02:31:48.134Z,2.42
2022-12-08T02:37:06.710Z,2.49
2022-12-08T02:42:14.480Z,2.49
2022-12-08T02:47:18.900Z,2.44
2022-12-08T02:52:20.444Z,2.51
2022-12-08T02:57:41.260Z,2.53
2022-12-08T03:03:01.682Z,2.51
2022-12-08T03:08:13.287Z,2.56
2022-12-08T03:13:20.466Z,2.58
2022-12-08T03:18:31.693Z,2.57
2022-12-08T03:23:36.983Z,2.59
2022-12-08T03:28:39.197Z,2.64
2022-12-08T03:33:45.841Z,2.62
2022-12-08T03:38:52.881Z,2.59
2022-12-08T03:43:59.369Z,2.61
2022-12-08T03:49:01.211Z,2.56
2022-12-08T03:54:02.809Z,2.56
2022-12-08T03:59:05.733Z,2.52
2022-12-08T04:04:07.433Z,2.54
2022-12-08T04:09:09.137Z,2.52
2022-12-08T04:14:10.722Z,2.52
2022-12-08T04:19:12.306Z,2.50
2022-12-08T04:24:13.875Z,2.56
2022-12-08T04:29:17.796Z,2.57
2022-12-08T04:34:19.549Z,2.57
2022-12-08T04:39:21.079Z,2.59
2022-12-08T04:44:22.711Z,2.63
2022-12-08T04:49:24.339Z,2.66
2022-12-08T04:54:26.968Z,2.65
2022-12-08T04:59:28.550Z,2.62
2022-12-08T05:04:30.161Z,2.65
2022-12-08T05:09:31.981Z,2.60
2022-12-08T05:14:33.498Z,2.59
2022-12-08T05:19:35.099Z,2.58
2022-12-08T05:24:36.755Z,2.58
2022-12-08T05:29:38.379Z,2.59
2022-12-08T05:34:40.196Z,2.56
2022-12-08T05:39:41.757Z,2.47
2022-12-08T05:44:43.451Z,2.34
2022-12-08T05:49:45.159Z,2.39
2022-12-08T05:54:47.226Z,2.30
2022-12-08T05:59:48.846Z,2.32
2022-12-08T06:04:50.359Z,2.34
2022-12-08T06:09:51.917Z,2.35
2022-12-08T06:14:53.445Z,2.35
2022-12-08T06:19:54.958Z,2.39
2022-12-08T06:24:56.499Z,2.38
2022-12-08T06:29:58.301Z,2.38
2022-12-08T06:34:59.866Z,2.39
2022-12-08T06:40:02.095Z,2.37
2022-12-08T06:45:04.321Z,2.38
2022-12-08T06:50:07.082Z,2.38
2022-12-08T06:55:09.439Z,2.27
2022-12-08T07:00:11.790Z,2.31
2022-12-08T07:05:17.592Z,2.31
2022-12-08T07:10:21.644Z,2.21
2022-12-08T07:15:27.279Z,2.26
2022-12-08T07:20:57.156Z,2.28
2022-12-08T07:26:06.087Z,2.17
2022-12-08T07:31:15.914Z,2.05
2022-12-08T07:36:17.889Z,1.98
2022-12-08T07:41:23.616Z,1.89
2022-12-08T07:46:26.514Z,1.84
2022-12-08T07:51:28.311Z,1.80
2022-12-08T07:56:29.895Z,1.81
2022-12-08T08:01:33.950Z,1.87
2022-12-08T08:06:37.822Z,1.87
2022-12-08T08:11:39.384Z,1.86
2022-12-08T08:16:46.888Z,1.88
2022-12-08T08:21:48.642Z,1.89
2022-12-08T08:26:50.613Z,1.92
2022-12-08T08:31:52.124Z,1.95
2022-12-08T08:36:53.872Z,1.95
2022-12-08T08:41:55.681Z,1.98
2022-12-08T08:47:02.524Z,2.08
2022-12-08T08:52:04.988Z,2.17
2022-12-08T08:57:06.511Z,2.28
2022-12-08T09:02:15.939Z,2.29
2022-12-08T09:07:17.536Z,2.32
2022-12-08T09:12:19.272Z,2.33
2022-12-08T09:17:20.775Z,2.40
2022-12-08T09:22:23.436Z,2.37
2022-12-08T09:27:25.080Z,2.41
2022-12-08T09:32:26.603Z,2.40
2022-12-08T09:37:30.739Z,2.44
2022-12-08T09:42:38.343Z,2.49
2022-12-08T09:48:04.321Z,2.56
2022-12-08T09:53:35.136Z,2.63
2022-12-08T09:58:49.023Z,2.66
2022-12-08T10:03:52.211Z,2.60
2022-12-08T10:09:22.655Z,2.90
2022-12-08T10:14:47.556Z,2.83
2022-12-08T10:19:55.560Z,2.69
2022-12-08T10:25:20.383Z,2.74
2022-12-08T10:30:22.717Z,2.91
2022-12-08T10:35:25.433Z,2.93
2022-12-08T10:40:35.445Z,3.00
2022-12-08T10:45:44.154Z,3.03
2022-12-08T10:50:47.912Z,2.79
2022-12-08T10:55:53.585Z,2.99
2022-12-08T11:01:03.181Z,2.94
2022-12-08T11:06:19.033Z,2.90
2022-12-08T11:11:27.487Z,2.88
2022-12-08T11:16:30.875Z,2.77
2022-12-08T11:21:37.534Z,2.89
2022-12-08T11:26:39.272Z,2.84
2022-12-08T11:31:50.214Z,2.80
2022-12-08T11:36:54.324Z,2.74
2022-12-08T11:41:57.522Z,2.86
2022-12-08T11:47:05.233Z,2.83
2022-12-08T11:52:42.181Z,2.93
2022-12-08T11:57:45.615Z,2.85
2022-12-08T12:02:56.545Z,2.78
2022-12-08T12:08:22.186Z,2.90
2022-12-08T12:13:52.453Z,2.79
2022-12-08T12:19:10.907Z,2.76
2022-12-08T12:24:35.804Z,2.92
2022-12-08T12:29:44.642Z,2.90
2022-12-08T12:34:54.759Z,2.92
2022-12-08T12:40:02.719Z,2.85
2022-12-08T12:45:17.656Z,2.96
2022-12-08T12:50:34.799Z,2.90
2022-12-08T12:55:45.566Z,2.97
2022-12-08T13:00:47.265Z,2.95
2022-12-08T13:05:53.127Z,3.00
2022-12-08T13:11:02.445Z,2.87
2022-12-08T13:16:19.201Z,2.94
2022-12-08T13:21:23.619Z,2.84
2022-12-08T13:26:27.366Z,2.91
2022-12-08T13:31:50.936Z,2.99
2022-12-08T13:37:11.663Z,2.92
2022-12-08T13:42:13.566Z,2.95
2022-12-08T13:47:35.956Z,2.92
2022-12-08T13:58:20.525Z,2.74
2022-12-08T14:03:22.562Z,2.69
2022-12-08T14:08:59.032Z,2.67
2022-12-08T14:13:53.787Z,2.64
2022-12-08T14:18:55.339Z,2.52
2022-12-08T14:24:01.805Z,2.35
2022-12-08T14:29:03.470Z,2.08
2022-12-08T14:34:05.502Z,1.85
2022-12-08T14:39:08.921Z,1.84
2022-12-08T14:44:39.167Z,1.88
2022-12-08T14:49:40.989Z,1.72
2022-12-08T14:54:43.555Z,1.77
2022-12-08T14:59:46.960Z,1.96
2022-12-08T15:04:54.959Z,1.87
2022-12-08T15:10:17.050Z,1.83
2022-12-08T15:15:18.819Z,1.86
2022-12-08T15:20:34.817Z,1.97
2022-12-08T15:25:39.578Z,1.78
2022-12-08T15:30:41.264Z,1.80
2022-12-08T15:35:43.643Z,1.77
2022-12-08T15:40:45.419Z,1.78
2022-12-08T15:45:57.909Z,1.77
2022-12-08T15:51:00.573Z,1.81
2022-12-08T16:01:28.932Z,1.69
2022-12-08T16:07:12.799Z,1.69
2022-12-08T16:12:10.920Z,1.80
2022-12-08T16:17:17.663Z,1.74
2022-12-08T16:22:52.893Z,1.79
2022-12-08T16:28:01.235Z,1.80
2022-12-08T16:33:05.400Z,1.81
2022-12-08T16:38:07.636Z,1.84
2022-12-08T16:43:09.256Z,1.93
2022-12-08T16:48:14.749Z,1.98
2022-12-08T16:53:16.462Z,1.93
2022-12-08T16:58:19.135Z,1.89
2022-12-08T17:03:21.175Z,1.86
2022-12-08T17:08:22.793Z,1.83
2022-12-08T17:13:24.462Z,1.72
2022-12-08T17:18:26.125Z,1.54
2022-12-08T17:23:27.797Z,1.54
2022-12-08T17:28:58.257Z,1.52
2022-12-08T17:33:59.229Z,1.69
2022-12-08T17:39:01.270Z,1.68
2022-12-08T17:44:02.918Z,1.74
2022-12-08T17:49:09.529Z,1.51
2022-12-08T17:54:12.101Z,1.75
2022-12-08T17:59:14.482Z,1.57
2022-12-08T18:04:16.093Z,1.58
2022-12-08T18:09:18.162Z,1.63
2022-12-08T18:14:20.684Z,1.62
2022-12-08T18:19:22.363Z,1.63
2022-12-08T18:24:24.207Z,1.63
2022-12-08T18:29:25.928Z,1.62
2022-12-08T18:34:27.611Z,1.54
2022-12-08T18:39:31.714Z,1.47
2022-12-08T18:44:33.296Z,1.41
2022-12-08T18:49:34.858Z,1.44
2022-12-08T18:55:05.036Z,1.47
2022-12-08T18:59:59.741Z,1.45
2022-12-08T19:05:01.345Z,1.50
2022-12-08T19:10:04.210Z,1.51
2022-12-08T19:15:06.625Z,1.54
2022-12-08T19:20:09.088Z,1.60
2022-12-08T19:25:10.875Z,1.71
2022-12-08T19:30:13.112Z,1.60
2022-12-08T19:35:14.755Z,1.76
2022-12-08T19:40:35.178Z,1.76
2022-12-08T19:45:37.291Z,1.79
2022-12-08T19:50:40.445Z,1.78
2022-12-08T19:55:43.403Z,1.65
2022-12-08T20:00:46.198Z,1.83
2022-12-08T20:05:49.661Z,1.84
2022-12-08T20:10:55.976Z,1.85
2022-12-08T20:15:58.170Z,1.87
2022-12-08T20:20:59.763Z,1.77
2022-12-08T20:26:05.590Z,1.87
2022-12-08T20:31:07.195Z,1.68
2022-12-08T20:36:16.165Z,1.66
2022-12-08T20:41:18.732Z,1.61
2022-12-08T20:46:21.235Z,1.58
2022-12-08T20:51:28.439Z,1.65
2022-12-08T20:56:33.542Z,1.66
2022-12-08T21:01:35.381Z,1.61
2022-12-08T21:06:37.021Z,1.65
2022-12-08T21:11:38.845Z,1.66
2022-12-08T21:16:40.487Z,1.69
2022-12-08T21:21:42.506Z,1.80
2022-12-08T21:26:44.810Z,1.72
2022-12-08T21:31:46.656Z,1.76
2022-12-08T21:36:48.446Z,1.81
2022-12-08T21:42:08.611Z,1.86
2022-12-08T21:47:10.447Z,1.80
2022-12-08T21:52:12.317Z,1.82
2022-12-08T21:57:14.079Z,1.87
2022-12-08T22:02:20.966Z,1.89
2022-12-08T22:07:24.496Z,1.86
2022-12-08T22:12:26.187Z,1.90
2022-12-08T22:30:49.949Z,2.05
2022-12-08T22:35:58.709Z,1.99
2022-12-08T22:41:04.970Z,1.85
2022-12-08T22:46:21.192Z,1.85
2022-12-08T22:51:23.097Z,2.01
2022-12-08T22:56:24.716Z,1.85
2022-12-08T23:01:29.577Z,1.83
2022-12-08T23:06:32.246Z,1.68
2022-12-08T23:11:33.860Z,1.57
2022-12-08T23:16:35.501Z,1.65
2022-12-08T23:21:37.731Z,1.69
2022-12-08T23:26:39.506Z,1.62
2022-12-08T23:31:43.573Z,1.60
2022-12-08T23:36:45.138Z,1.63
2022-12-08T23:41:46.899Z,1.58
2022-12-08T23:46:48.685Z,1.58
2022-12-08T23:51:51.182Z,1.53
2022-12-08T23:56:53.073Z,1.52
